Princewick, West Virginia
Current Conditions -  °F | °C
As of 12:37 AM on Friday 28 Nov 2014 (Local Time) from KBKW Reporting Station
Light Snow Light Snow  
Wind Chill: 14°   Ceiling: 1500
Heat Index: 24°   Visibility: 1.5mi
Dew Point: 20°   Wind: 9mph
Humidity: 84%   Direction: 310°NW
Pressure: 30.21"   Gusts: NA
Location:  37.66°N, 81.22°W
Report Text: KBKW 280537Z AUTO 31008KT 1 1/2SM -SN BR BKN015 BKN019 OVC044 M04/M07 A3021 RMK AO2 P0000 T10441067
Loading
Personal Weather Stations






























Interactive Weather Map New forecast layout! Learn more

10-Day Weather Forecast

Advertisements
Track Severe Weather on mobile